createdAt,value
2022-12-28T00:02:13.226Z,5.76
2022-12-28T00:04:39.874Z,5.88
2022-12-28T00:07:06.515Z,5.97
2022-12-28T00:09:33.135Z,5.86
2022-12-28T00:11:59.894Z,5.61
2022-12-28T00:14:26.528Z,5.71
2022-12-28T00:16:53.281Z,5.78
2022-12-28T00:19:19.998Z,5.74
2022-12-28T00:21:47.197Z,5.76
2022-12-28T00:24:23.151Z,5.67
2022-12-28T00:26:50.100Z,5.69
2022-12-28T00:29:17.753Z,5.76
2022-12-28T00:31:45.941Z,5.41
2022-12-28T00:34:13.373Z,5.71
2022-12-28T00:37:09.757Z,5.70
2022-12-28T00:39:29.307Z,5.56
2022-12-28T00:41:55.940Z,5.70
2022-12-28T00:44:22.543Z,5.42
2022-12-28T00:46:49.196Z,5.55
2022-12-28T00:49:15.824Z,5.35
2022-12-28T00:51:42.646Z,5.10
2022-12-28T00:54:09.641Z,5.53
2022-12-28T00:56:36.372Z,5.60
2022-12-28T00:59:03.275Z,5.54
2022-12-28T01:01:30.216Z,5.70
2022-12-28T01:03:58.784Z,5.58
2022-12-28T01:06:26.610Z,5.65
2022-12-28T01:08:53.375Z,5.74
2022-12-28T01:11:25.716Z,5.70
2022-12-28T01:13:55.682Z,5.90
2022-12-28T01:16:32.712Z,5.74
2022-12-28T01:19:01.543Z,5.45
2022-12-28T01:21:31.092Z,5.75
2022-12-28T01:24:00.567Z,5.29
2022-12-28T01:26:28.167Z,5.60
2022-12-28T01:28:56.200Z,5.46
2022-12-28T01:31:23.218Z,5.42
2022-12-28T01:33:51.304Z,5.51
2022-12-28T01:36:21.330Z,5.62
2022-12-28T01:38:49.065Z,5.66
2022-12-28T01:41:18.148Z,5.35
2022-12-28T01:44:07.793Z,5.50
2022-12-28T01:46:57.782Z,5.37
2022-12-28T01:49:52.862Z,5.52
2022-12-28T01:52:53.462Z,5.75
2022-12-28T01:55:27.273Z,5.81
2022-12-28T01:58:00.993Z,5.84
2022-12-28T02:00:28.211Z,5.76
2022-12-28T02:02:58.741Z,5.82
2022-12-28T02:05:29.571Z,5.97
2022-12-28T02:08:08.004Z,5.80
2022-12-28T02:10:41.209Z,5.82
2022-12-28T02:13:15.711Z,5.75
2022-12-28T02:15:42.965Z,5.69
2022-12-28T02:18:10.773Z,5.99
2022-12-28T02:20:49.587Z,5.85
2022-12-28T02:23:38.398Z,5.68
2022-12-28T02:26:05.014Z,5.82
2022-12-28T02:28:43.576Z,5.68
2022-12-28T02:31:20.944Z,5.46
2022-12-28T02:33:57.439Z,5.74
2022-12-28T02:36:30.542Z,5.77
2022-12-28T02:39:05.695Z,5.81
2022-12-28T02:41:34.329Z,5.79
2022-12-28T02:44:01.503Z,5.82
2022-12-28T02:46:48.479Z,5.68
2022-12-28T02:49:41.940Z,5.82
2022-12-28T02:52:11.444Z,5.84
2022-12-28T02:55:08.860Z,5.84
2022-12-28T02:57:54.649Z,5.64
2022-12-28T03:00:25.935Z,5.78
2022-12-28T03:03:43.992Z,5.64
2022-12-28T03:07:18.159Z,5.77
2022-12-28T03:10:07.089Z,5.77
2022-12-28T03:12:42.987Z,5.86
2022-12-28T03:15:15.346Z,5.99
2022-12-28T03:18:02.846Z,5.80
2022-12-28T03:20:50.802Z,5.90
2022-12-28T03:23:40.267Z,5.87
2022-12-28T03:26:29.193Z,5.97
2022-12-28T03:29:18.273Z,5.95
2022-12-28T03:31:45.257Z,5.99
2022-12-28T03:34:14.884Z,6.02
2022-12-28T03:37:02.612Z,5.85
2022-12-28T03:39:36.501Z,6.12
2022-12-28T03:42:33.842Z,6.03
2022-12-28T03:45:09.583Z,6.09
2022-12-28T03:47:38.730Z,5.95
2022-12-28T03:50:06.001Z,6.03
2022-12-28T03:52:33.577Z,5.86
2022-12-28T03:55:03.631Z,5.89
2022-12-28T03:57:30.507Z,6.11
2022-12-28T03:59:57.533Z,6.04
2022-12-28T04:02:24.252Z,5.92
2022-12-28T04:04:51.537Z,6.00
2022-12-28T04:07:18.245Z,6.03
2022-12-28T04:09:44.964Z,6.02
2022-12-28T04:12:12.941Z,6.12
2022-12-28T04:15:09.455Z,6.13
2022-12-28T04:17:36.150Z,6.10
2022-12-28T04:20:03.850Z,6.29
2022-12-28T04:22:31.036Z,6.32
2022-12-28T04:24:58.915Z,6.37
2022-12-28T04:27:25.668Z,6.30
2022-12-28T04:29:55.910Z,6.20
2022-12-28T04:32:24.813Z,6.19
2022-12-28T04:34:51.410Z,6.25
2022-12-28T04:37:18.867Z,6.29
2022-12-28T04:39:55.298Z,6.31
2022-12-28T04:42:27.259Z,6.36
2022-12-28T04:44:53.923Z,6.47
2022-12-28T04:47:20.871Z,6.34
2022-12-28T04:49:47.607Z,6.38
2022-12-28T04:52:14.310Z,6.32
2022-12-28T04:54:40.964Z,6.39
2022-12-28T04:57:07.601Z,6.37
2022-12-28T04:59:34.272Z,6.33
2022-12-28T05:02:01.197Z,6.26
2022-12-28T05:04:28.041Z,6.29
2022-12-28T05:06:54.629Z,6.24
2022-12-28T05:09:21.448Z,6.15
2022-12-28T05:11:48.346Z,6.39
2022-12-28T05:14:15.078Z,6.38
2022-12-28T05:16:42.270Z,6.32
2022-12-28T05:19:09.061Z,6.32
2022-12-28T05:21:35.639Z,6.42
2022-12-28T05:24:02.270Z,6.21
2022-12-28T05:26:29.688Z,6.42
2022-12-28T05:28:58.432Z,6.28
2022-12-28T05:31:25.211Z,6.26
2022-12-28T05:33:52.631Z,6.35
2022-12-28T05:36:24.556Z,6.19
2022-12-28T05:38:52.857Z,6.30
2022-12-28T05:41:21.984Z,6.40
2022-12-28T05:43:49.259Z,6.43
2022-12-28T05:46:19.416Z,6.39
2022-12-28T05:48:47.017Z,6.55
2022-12-28T05:51:18.070Z,6.39
2022-12-28T05:53:45.238Z,6.48
2022-12-28T05:56:14.971Z,6.42
2022-12-28T05:58:43.059Z,6.47
2022-12-28T06:01:15.934Z,6.49
2022-12-28T06:03:43.223Z,6.66
2022-12-28T06:06:16.057Z,6.48
2022-12-28T06:08:44.690Z,6.30
2022-12-28T06:11:14.304Z,6.42
2022-12-28T06:13:41.338Z,6.32
2022-12-28T06:16:11.851Z,6.37
2022-12-28T06:18:38.565Z,6.42
2022-12-28T06:21:19.728Z,6.46
2022-12-28T06:23:47.087Z,6.37
2022-12-28T06:26:16.687Z,6.29
2022-12-28T06:28:43.772Z,6.38
2022-12-28T06:31:19.401Z,6.42
2022-12-28T06:33:46.784Z,6.07
2022-12-28T06:36:20.588Z,6.34
2022-12-28T06:38:52.147Z,6.61
2022-12-28T06:41:21.388Z,6.59
2022-12-28T06:43:48.976Z,6.60
2022-12-28T06:46:17.303Z,6.53
2022-12-28T06:48:44.573Z,6.34
2022-12-28T06:51:19.147Z,6.10
2022-12-28T06:53:46.954Z,6.40
2022-12-28T06:56:36.132Z,6.17
2022-12-28T06:59:04.334Z,6.46
2022-12-28T07:01:34.929Z,6.36
2022-12-28T07:04:03.235Z,6.24
2022-12-28T07:06:33.699Z,6.46
2022-12-28T07:09:02.528Z,6.47
2022-12-28T07:11:30.399Z,6.28
2022-12-28T07:13:57.447Z,6.41
2022-12-28T07:16:26.349Z,6.63
2022-12-28T07:18:53.488Z,6.67
2022-12-28T07:21:26.724Z,6.43
2022-12-28T07:23:55.191Z,6.58
2022-12-28T07:26:30.297Z,6.73
2022-12-28T07:28:58.929Z,6.49
2022-12-28T07:31:44.151Z,6.37
2022-12-28T07:34:15.002Z,6.49
2022-12-28T07:36:42.203Z,6.75
2022-12-28T07:39:09.029Z,6.64
2022-12-28T07:41:38.455Z,6.56
2022-12-28T07:44:06.667Z,6.58
2022-12-28T07:46:35.933Z,6.78
2022-12-28T07:49:03.544Z,6.68
2022-12-28T07:51:33.444Z,6.62
2022-12-28T07:54:00.776Z,6.81
2022-12-28T07:56:29.018Z,6.71
2022-12-28T07:59:01.203Z,6.74
2022-12-28T08:01:31.770Z,6.98
2022-12-28T08:04:01.412Z,6.91
2022-12-28T08:06:29.976Z,6.78
2022-12-28T08:08:59.831Z,6.89
2022-12-28T08:11:29.738Z,6.96
2022-12-28T08:13:57.309Z,6.85
2022-12-28T08:16:26.774Z,6.62
2022-12-28T08:18:54.833Z,6.88
2022-12-28T08:21:28.905Z,6.83
2022-12-28T08:23:56.243Z,7.01
2022-12-28T08:26:26.122Z,6.95
2022-12-28T08:28:56.142Z,6.78
2022-12-28T08:31:26.057Z,7.00
2022-12-28T08:33:54.134Z,6.94
2022-12-28T08:36:21.751Z,7.09
2022-12-28T08:38:48.904Z,7.06
2022-12-28T08:41:21.137Z,7.12
2022-12-28T08:43:49.231Z,7.27
2022-12-28T08:46:19.586Z,7.09
2022-12-28T08:48:47.830Z,7.25
2022-12-28T08:51:21.104Z,7.34
2022-12-28T08:53:48.521Z,7.10
2022-12-28T08:56:17.943Z,7.04
2022-12-28T08:58:46.054Z,7.37
2022-12-28T09:01:17.215Z,7.59
2022-12-28T09:03:46.199Z,7.57
2022-12-28T09:06:19.125Z,7.59
2022-12-28T09:09:04.824Z,7.38
2022-12-28T09:11:31.852Z,7.46
2022-12-28T09:13:58.509Z,7.69
2022-12-28T09:16:27.657Z,7.98
2022-12-28T09:18:56.360Z,8.11
2022-12-28T09:21:26.066Z,8.36
2022-12-28T09:23:52.770Z,8.28
2022-12-28T09:26:22.245Z,8.37
2022-12-28T09:28:57.195Z,8.35
2022-12-28T09:31:26.112Z,8.03
2022-12-28T09:36:47.095Z,8.41
2022-12-28T09:39:17.418Z,8.45
2022-12-28T09:41:48.599Z,8.47
2022-12-28T09:44:38.527Z,8.42
2022-12-28T09:47:08.182Z,8.44
2022-12-28T09:49:59.598Z,8.42
2022-12-28T09:52:33.816Z,8.41
2022-12-28T09:55:10.444Z,8.42
2022-12-28T09:57:42.035Z,8.49
2022-12-28T10:00:16.998Z,8.60
2022-12-28T10:02:48.015Z,8.50
2022-12-28T10:05:15.236Z,8.54
2022-12-28T10:07:41.959Z,8.54
2022-12-28T10:10:16.756Z,8.50
2022-12-28T10:12:44.186Z,8.29
2022-12-28T10:15:16.289Z,8.29
2022-12-28T10:17:43.894Z,8.40
2022-12-28T10:20:19.645Z,8.55
2022-12-28T10:22:51.367Z,8.55
2022-12-28T10:25:22.299Z,8.57
2022-12-28T10:27:49.754Z,8.64
2022-12-28T10:30:18.420Z,8.75
2022-12-28T10:33:03.199Z,8.85
2022-12-28T10:35:49.457Z,9.11
2022-12-28T10:38:20.830Z,9.30
2022-12-28T10:41:01.170Z,9.17
2022-12-28T10:43:30.557Z,9.05
2022-12-28T10:45:59.030Z,9.08
2022-12-28T10:48:30.935Z,9.31
2022-12-28T10:51:02.098Z,9.40
2022-12-28T10:53:33.472Z,9.08
2022-12-28T10:56:02.653Z,9.19
2022-12-28T10:58:31.146Z,9.20
2022-12-28T11:01:02.299Z,9.05
2022-12-28T11:03:35.492Z,9.23
2022-12-28T11:06:18.865Z,9.26
2022-12-28T11:09:14.805Z,9.26
2022-12-28T11:11:43.408Z,9.31
2022-12-28T11:14:31.831Z,9.27
2022-12-28T11:17:14.186Z,9.37
2022-12-28T11:19:40.969Z,9.35
2022-12-28T11:22:11.603Z,9.48
2022-12-28T11:24:40.531Z,9.42
2022-12-28T11:27:13.386Z,9.52
2022-12-28T11:29:44.560Z,9.52
2022-12-28T11:32:25.370Z,9.43
2022-12-28T11:34:54.515Z,9.28
2022-12-28T11:37:21.337Z,9.37
2022-12-28T11:39:49.323Z,9.61
2022-12-28T11:42:39.424Z,9.64
2022-12-28T11:45:15.890Z,9.81
2022-12-28T11:47:43.070Z,9.79
2022-12-28T11:50:52.046Z,9.78
2022-12-28T11:53:44.798Z,9.65
2022-12-28T11:56:19.292Z,9.71
2022-12-28T11:59:01.626Z,9.72
2022-12-28T12:01:29.273Z,9.70
2022-12-28T12:03:59.024Z,9.64
2022-12-28T12:06:44.038Z,9.64
2022-12-28T12:09:25.817Z,9.69
2022-12-28T12:11:55.168Z,9.72
2022-12-28T12:14:44.509Z,9.72
2022-12-28T12:17:22.123Z,9.73
2022-12-28T12:19:54.270Z,9.75
2022-12-28T12:22:23.560Z,9.82
2022-12-28T12:24:57.802Z,9.99
2022-12-28T12:27:33.155Z,10.04
2022-12-28T12:30:06.831Z,9.99
2022-12-28T12:32:58.362Z,9.95
2022-12-28T12:35:28.260Z,9.93
2022-12-28T12:38:03.837Z,9.98
2022-12-28T12:40:52.092Z,10.03
2022-12-28T12:43:29.254Z,10.14
2022-12-28T12:46:14.517Z,10.17
2022-12-28T12:49:02.804Z,10.18
2022-12-28T12:51:40.597Z,10.07
2022-12-28T12:54:26.974Z,10.21
2022-12-28T12:57:04.700Z,10.21
2022-12-28T13:00:03.677Z,10.29
2022-12-28T13:02:50.996Z,10.20
2022-12-28T13:05:22.188Z,10.23
2022-12-28T13:07:50.326Z,10.08
2022-12-28T13:10:24.838Z,9.99
2022-12-28T13:12:55.736Z,10.01
2022-12-28T13:15:22.704Z,10.07
2022-12-28T13:18:44.020Z,10.10
2022-12-28T13:21:10.538Z,10.05
2022-12-28T13:23:44.512Z,10.07
2022-12-28T13:26:13.941Z,10.10
2022-12-28T13:28:51.939Z,10.08
2022-12-28T13:31:22.614Z,10.06
2022-12-28T13:33:57.309Z,10.08
2022-12-28T13:36:24.039Z,10.04
2022-12-28T13:39:18.575Z,9.98
2022-12-28T13:41:51.943Z,9.99
2022-12-28T13:44:26.097Z,10.00
2022-12-28T13:47:01.742Z,9.88
2022-12-28T13:49:34.353Z,9.85
2022-12-28T13:52:01.857Z,10.00
2022-12-28T13:54:28.605Z,10.05
2022-12-28T13:57:20.600Z,10.14
2022-12-28T13:59:46.195Z,10.13
2022-12-28T14:02:18.824Z,9.89
2022-12-28T14:04:53.047Z,9.97
2022-12-28T14:07:24.197Z,10.18
2022-12-28T14:09:52.946Z,10.30
2022-12-28T14:12:20.757Z,10.13
2022-12-28T14:14:48.453Z,10.32
2022-12-28T14:17:15.639Z,10.06
2022-12-28T14:19:43.179Z,10.25
2022-12-28T14:22:31.114Z,9.92
2022-12-28T14:24:59.677Z,10.24
2022-12-28T14:27:26.625Z,10.11
2022-12-28T14:29:55.134Z,10.08
2022-12-28T14:32:22.072Z,9.96
2022-12-28T14:37:40.299Z,10.38
2022-12-28T14:40:18.863Z,10.34
2022-12-28T14:42:49.803Z,10.39
2022-12-28T14:45:24.153Z,10.41
2022-12-28T14:47:55.525Z,10.48
2022-12-28T14:50:28.324Z,10.39
2022-12-28T14:53:13.661Z,10.38
2022-12-28T14:56:14.685Z,10.34
2022-12-28T14:58:58.544Z,10.25
2022-12-28T15:00:16.044Z,10.01
2022-12-28T15:01:40.244Z,10.08
2022-12-28T15:04:07.021Z,10.02
2022-12-28T15:06:33.711Z,10.03
2022-12-28T15:09:01.576Z,10.07
2022-12-28T15:11:29.518Z,10.07
2022-12-28T15:13:57.334Z,9.79
2022-12-28T15:16:24.782Z,9.90
2022-12-28T15:18:52.832Z,9.95
2022-12-28T15:21:21.702Z,10.28
2022-12-28T15:23:55.527Z,10.11
2022-12-28T15:26:23.864Z,9.98
2022-12-28T15:28:51.148Z,9.97
2022-12-28T15:31:19.864Z,9.95
2022-12-28T15:33:47.413Z,10.17
2022-12-28T15:36:18.114Z,10.06
2022-12-28T15:38:49.608Z,10.06
2022-12-28T15:41:36.089Z,10.15
2022-12-28T15:44:04.045Z,10.01
2022-12-28T15:46:30.812Z,9.95
2022-12-28T15:48:57.679Z,9.89
2022-12-28T15:51:24.538Z,9.93
2022-12-28T15:53:51.582Z,9.83
2022-12-28T15:56:30.378Z,9.86
2022-12-28T15:58:59.190Z,9.86
2022-12-28T16:01:28.165Z,9.84
2022-12-28T16:03:56.760Z,9.88
2022-12-28T16:06:26.141Z,10.03
2022-12-28T16:08:54.237Z,10.31
2022-12-28T16:11:21.937Z,10.21
2022-12-28T16:14:04.106Z,10.14
2022-12-28T16:16:35.936Z,10.00
2022-12-28T16:19:03.462Z,9.99
2022-12-28T16:21:31.006Z,10.00
2022-12-28T16:23:59.689Z,10.08
2022-12-28T16:26:26.878Z,9.94
2022-12-28T16:28:53.900Z,9.81
2022-12-28T16:31:26.230Z,9.69
2022-12-28T16:33:54.771Z,9.93
2022-12-28T16:36:22.375Z,9.70
2022-12-28T16:38:49.365Z,9.92
2022-12-28T16:41:16.395Z,9.83
2022-12-28T16:43:43.080Z,9.83
2022-12-28T16:46:10.050Z,9.72
2022-12-28T16:48:37.911Z,9.65
2022-12-28T16:51:04.768Z,9.57
2022-12-28T16:53:33.398Z,9.57
2022-12-28T16:56:01.330Z,9.59
2022-12-28T16:58:30.100Z,9.78
2022-12-28T17:00:58.087Z,9.73
2022-12-28T17:03:25.486Z,9.70
2022-12-28T17:05:53.442Z,9.62
2022-12-28T17:08:20.183Z,9.71
2022-12-28T17:10:46.876Z,9.58
2022-12-28T17:13:13.479Z,9.66
2022-12-28T17:15:40.955Z,9.68
2022-12-28T17:18:07.994Z,9.68
2022-12-28T17:20:38.563Z,9.67
2022-12-28T17:23:06.212Z,9.65
2022-12-28T17:25:34.102Z,9.71
2022-12-28T17:28:01.222Z,9.76
2022-12-28T17:30:28.534Z,9.69
2022-12-28T17:32:55.637Z,9.68
2022-12-28T17:35:23.600Z,9.77
2022-12-28T17:37:50.728Z,9.80
2022-12-28T17:40:17.641Z,9.74
2022-12-28T17:42:44.478Z,9.79
2022-12-28T17:45:12.416Z,9.81
2022-12-28T17:47:39.559Z,9.76
2022-12-28T17:50:07.192Z,9.73
2022-12-28T17:52:33.937Z,9.74
2022-12-28T17:55:00.697Z,9.66
2022-12-28T17:57:27.396Z,9.41
2022-12-28T17:59:54.052Z,9.64
2022-12-28T18:02:21.084Z,9.72
2022-12-28T18:04:48.156Z,9.67
2022-12-28T18:07:14.978Z,9.63
2022-12-28T18:09:41.766Z,9.70
2022-12-28T18:12:08.490Z,9.57
2022-12-28T18:14:35.290Z,9.64
2022-12-28T18:17:02.190Z,9.75
2022-12-28T18:19:29.067Z,9.81
2022-12-28T18:21:55.789Z,9.68
2022-12-28T18:24:22.528Z,9.61
2022-12-28T18:26:49.214Z,9.48
2022-12-28T18:29:16.045Z,9.66
2022-12-28T18:31:42.834Z,9.49
2022-12-28T18:34:09.543Z,9.46
2022-12-28T18:36:36.373Z,9.62
2022-12-28T18:39:04.606Z,9.40
2022-12-28T18:41:34.248Z,9.72
2022-12-28T18:44:02.764Z,9.51
2022-12-28T18:46:29.951Z,9.29
2022-12-28T18:48:56.972Z,9.64
2022-12-28T18:51:23.766Z,9.51
2022-12-28T18:53:50.996Z,9.41
2022-12-28T18:56:20.134Z,9.33
2022-12-28T18:58:55.894Z,9.30
2022-12-28T19:02:05.971Z,9.72
2022-12-28T19:04:12.681Z,9.70
2022-12-28T19:06:40.865Z,9.45
2022-12-28T19:09:09.309Z,9.58
2022-12-28T19:11:36.904Z,9.82
2022-12-28T19:14:05.614Z,9.67
2022-12-28T19:16:32.732Z,9.64
2022-12-28T19:19:00.601Z,9.38
2022-12-28T19:21:35.722Z,9.33
2022-12-28T19:24:10.180Z,9.63
2022-12-28T19:26:36.961Z,9.52
2022-12-28T19:29:04.581Z,9.46
2022-12-28T19:31:31.675Z,9.44
2022-12-28T19:33:58.898Z,9.47
2022-12-28T19:36:26.121Z,9.46
2022-12-28T19:38:54.658Z,9.44
2022-12-28T19:41:21.733Z,9.28
2022-12-28T19:43:48.611Z,9.28
2022-12-28T19:46:18.753Z,9.29
2022-12-28T19:48:46.550Z,9.18
2022-12-28T19:51:14.449Z,9.34
2022-12-28T19:53:41.279Z,9.20
2022-12-28T19:56:12.504Z,9.24
2022-12-28T19:58:39.753Z,9.35
2022-12-28T20:01:15.950Z,9.55
2022-12-28T20:03:43.141Z,9.48
2022-12-28T20:06:13.387Z,9.43
2022-12-28T20:08:40.522Z,9.28
2022-12-28T20:11:07.220Z,9.40
2022-12-28T20:13:34.566Z,9.32
2022-12-28T20:16:01.351Z,9.49
2022-12-28T20:18:28.255Z,9.50
2022-12-28T20:23:48.507Z,9.19
2022-12-28T20:26:15.953Z,9.45
2022-12-28T20:28:42.676Z,9.33
2022-12-28T20:31:13.019Z,9.32
2022-12-28T20:33:40.285Z,9.39
2022-12-28T20:36:10.619Z,9.31
2022-12-28T20:38:37.893Z,9.05
2022-12-28T20:41:44.515Z,9.25
2022-12-28T20:44:14.327Z,9.31
2022-12-28T20:46:44.755Z,9.28
2022-12-28T20:49:12.237Z,9.22
2022-12-28T20:51:38.991Z,9.38
2022-12-28T20:54:05.950Z,9.22
2022-12-28T20:56:32.934Z,9.28
2022-12-28T20:58:59.634Z,9.20
2022-12-28T21:01:26.387Z,9.06
2022-12-28T21:03:53.209Z,9.33
2022-12-28T21:06:20.144Z,9.10
2022-12-28T21:08:47.011Z,9.18
2022-12-28T21:11:14.094Z,9.32
2022-12-28T21:13:44.687Z,9.15
2022-12-28T21:16:13.154Z,9.48
2022-12-28T21:18:40.228Z,9.42
2022-12-28T21:21:14.608Z,9.42
2022-12-28T21:23:41.642Z,9.49
2022-12-28T21:26:13.725Z,9.43
2022-12-28T21:28:40.445Z,9.41
2022-12-28T21:31:07.497Z,9.32
2022-12-28T21:33:34.246Z,9.22
2022-12-28T21:36:06.697Z,9.60
2022-12-28T21:38:37.158Z,9.62
2022-12-28T21:41:06.677Z,9.75
2022-12-28T21:43:33.414Z,9.82
2022-12-28T21:46:09.300Z,9.90
2022-12-28T21:48:36.978Z,9.97
2022-12-28T21:51:29.235Z,9.70
2022-12-28T21:53:56.949Z,9.99
2022-12-28T21:56:23.961Z,9.96
2022-12-28T21:58:50.979Z,10.10
2022-12-28T22:01:36.541Z,10.02
2022-12-28T22:04:23.107Z,10.11
2022-12-28T22:06:49.766Z,10.20
2022-12-28T22:09:35.069Z,10.19
2022-12-28T22:12:20.467Z,10.12
2022-12-28T22:14:47.052Z,10.32
2022-12-28T22:17:14.633Z,10.23
2022-12-28T22:19:41.680Z,10.29
2022-12-28T22:22:08.503Z,10.09
2022-12-28T22:24:35.171Z,10.21
2022-12-28T22:27:01.828Z,10.27
2022-12-28T22:29:28.481Z,10.26
2022-12-28T22:31:55.174Z,10.04
2022-12-28T22:34:21.922Z,10.28
2022-12-28T22:36:48.600Z,10.04
2022-12-28T22:39:15.220Z,10.05
2022-12-28T22:41:41.949Z,10.08
2022-12-28T22:44:09.821Z,9.93
2022-12-28T22:46:36.583Z,9.88
2022-12-28T22:49:03.246Z,10.32
2022-12-28T22:51:29.899Z,10.45
2022-12-28T22:53:56.576Z,10.20
2022-12-28T22:56:23.499Z,10.20
2022-12-28T22:58:50.332Z,10.38
2022-12-28T23:01:19.446Z,10.39
2022-12-28T23:03:47.807Z,10.29
2022-12-28T23:06:18.476Z,10.21
2022-12-28T23:08:46.106Z,10.28
2022-12-28T23:11:34.329Z,10.16
2022-12-28T23:14:20.320Z,10.39
2022-12-28T23:16:48.175Z,10.30
2022-12-28T23:19:33.948Z,10.33
2022-12-28T23:22:21.273Z,10.40
2022-12-28T23:25:06.735Z,10.47
2022-12-28T23:27:43.064Z,10.24
2022-12-28T23:30:19.658Z,10.33
2022-12-28T23:32:51.464Z,10.31
2022-12-28T23:35:19.673Z,10.45
2022-12-28T23:37:46.849Z,10.44
2022-12-28T23:40:16.079Z,10.45
2022-12-28T23:42:43.898Z,10.60
2022-12-28T23:45:13.828Z,10.76
2022-12-28T23:47:42.232Z,10.52
2022-12-28T23:50:09.541Z,10.61
2022-12-28T23:52:36.597Z,10.70
2022-12-28T23:55:03.756Z,10.77
2022-12-28T23:57:30.516Z,10.90
2022-12-28T23:59:57.275Z,10.95
